Brooks, KY (40109)

5:39 AM EST on February 28, 2017 (GMT -0500)
Fairdale | | Change Station

Elev 459 ft 38.12 °N, 85.77 °W | Updated 5 seconds ago

Rain
Rain
50.7 °F
Feels Like 50.7 °F
N
5.0
Wind Variable Wind from SE
Gusts 13.0 mph

Today
High -- | Low -- °F
--% Chance of Precip.
Yesterday
High -- | Low -- °F
Precip. -- in
Pressure 30.06 in
Visibility 8.0 miles
Clouds Few 4600 ft
Mostly Cloudy 6500 ft
Overcast 9000 ft
Dew Point 48 °F
Humidity 91%
Rainfall 0.04 in
Snow Depth Not available.
7:15 AM 6:35 PM
Waxing Crescent, 4% visible
SPECI KSDF 281035Z 15009KT 8SM -RA FEW046 BKN065 OVC090 11/08 A3006 RMK AO2 LTG DSNT ALQDS TSE03B05E34 P0005 T01110083
Pressure 30.06 in
Visibility 8.0 miles
Clouds Few 4600 ft
Mostly Cloudy 6500 ft
Overcast 9000 ft
Dew Point 48 °F
Humidity 91%
Rainfall 0.04 in
Snow Depth Not available.
7:15 AM 6:35 PM
Waxing Crescent, 4% visible
SPECI KSDF 281035Z 15009KT 8SM -RA FEW046 BKN065 OVC090 11/08 A3006 RMK AO2 LTG DSNT ALQDS TSE03B05E34 P0005 T01110083

Get Your Daily Forecast Email!

Thanks for signing up!

Be on the lookout for a verification email in your inbox.

You'll start receiving the daily forecast at 8 AM.

×

10-Day Weather Forecast

Almanac

Astronomy

Feb. 28, 2017 Rise Set
Actual Time
Civil Twilight
Nautical Twilight
Astronomical Twilight
Moon
Length of Visible Light
Length of Day
Tomorrow will be .
, % of the Moon is Illuminated

Today's Extremes

State Highs State Lows

Community

WunderPhotos

Upload Photos

1,962,540 photos uploaded!

WunderBlog® & News

Nearby

Air Quality

  Air Quality AQ Index Pollutant
Not available.

Snow Depth

Station Depth Elevation

Earthquake Activity

City Distance Mag. Time & Date
Minimum magnitude displayed is 2.5.

Coastal Water Temperatures

Place Temperature

Stations

Nearby Weather Stations

Station Location Temp. Windchill Dew Point Humidity Wind Precip. Elev Updated Type
                   

Watches & Warnings

There are currently no watches in effect.